首页
METAR-TAF:

METAR-TAF

机场 :

Kbely

布拉格, 捷克共和国

纬度: 50-07-17N, 经度: 14-32-37E, 海拔: 286米

当前天气观测

该预报发布于34分钟前的00:30 UTC
风速10节,风向西
温度 8°C
湿度 87%
气压 996 hPa
能见度10公里或以上
阴天层高于2200英尺
小雨

METAR: LKKB 260030Z 27010KT 9999 -RA OVC022 08/06 Q0996

时间: 03:04 (01:04 UTC)

预报

该预报发布于2小时和4分钟前的23:00 UTC
预报有效从26日的 00点(UTC)到 27日的 00点(UTC)
风速14节,风向西
能見度: 8000
散云层高于1000英尺
多云层高于2200英尺
短暂存在
从 26日的 00点(UTC)到 26日的 10点(UTC)
风速12节,风向西转西北,有时为22节阵风
能見度: 4000
散云层高于600英尺
阴天层高于1200英尺
雨, 轻雾
成为
从 26日的 16点(UTC)到 26日的 18点(UTC)
风速8节,风向西转西南
能见度10公里或以上
多云层高于2500英尺

TAF: LKKB 252300Z 2600/2700 28014KT 8000 RA SCT010 BKN022 TEMPO 2600/2610 30012G22KT 4000 RA BR SCT006 OVC012 BECMG 2616/2618 24008KT 9999 NSW BKN025

超过4000个机场的气象观测和天气预报(METAR&TAF报告)。

可查询的气象台以黄色和红色小点在地图上表示。

将鼠标移到小点上方,可查看气象台名称。

然后点击查看天气观测和预报。

如需切换地图:点击带黑十字的绿色按钮放大地图;点击带横线的绿色按钮缩小地图;或者点击绿色箭头查看邻近地区的地图。


METAR-TAF: